sensor_id;sensor_type;location;lat;lon;timestamp;pressure;altitude;pressure_sealevel;temperature;humidity
51781;BME280;37844;57.126;24.288;2023-01-27T00:00:02;102043.78;;;1.64;100.00
51781;BME280;37844;57.126;24.288;2023-01-27T00:02:27;102036.38;;;1.56;100.00
51781;BME280;37844;57.126;24.288;2023-01-27T00:04:53;102031.88;;;1.40;100.00
51781;BME280;37844;57.126;24.288;2023-01-27T00:07:18;102052.31;;;1.41;100.00
51781;BME280;37844;57.126;24.288;2023-01-27T00:09:44;102050.78;;;1.43;100.00
51781;BME280;37844;57.126;24.288;2023-01-27T00:12:18;102056.84;;;1.34;100.00
51781;BME280;37844;57.126;24.288;2023-01-27T00:15:04;102056.94;;;1.35;100.00
51781;BME280;37844;57.126;24.288;2023-01-27T00:17:30;102065.56;;;1.37;100.00
51781;BME280;37844;57.126;24.288;2023-01-27T00:19:56;102080.06;;;1.38;100.00
51781;BME280;37844;57.126;24.288;2023-01-27T00:22:21;102071.19;;;1.57;100.00
51781;BME280;37844;57.126;24.288;2023-01-27T00:25:05;102063.47;;;1.55;100.00
51781;BME280;37844;57.126;24.288;2023-01-27T00:27:31;102066.66;;;1.53;100.00
51781;BME280;37844;57.126;24.288;2023-01-27T00:29:56;102079.72;;;1.34;100.00
51781;BME280;37844;57.126;24.288;2023-01-27T00:32:22;102077.72;;;1.41;100.00
51781;BME280;37844;57.126;24.288;2023-01-27T00:35:06;102070.75;;;1.51;100.00
51781;BME280;37844;57.126;24.288;2023-01-27T00:37:32;102078.50;;;1.29;100.00
51781;BME280;37844;57.126;24.288;2023-01-27T00:39:57;102088.75;;;1.30;100.00
51781;BME280;37844;57.126;24.288;2023-01-27T00:42:22;102086.13;;;1.17;100.00
51781;BME280;37844;57.126;24.288;2023-01-27T00:44:48;102084.25;;;1.14;100.00
51781;BME280;37844;57.126;24.288;2023-01-27T00:47:32;102083.34;;;1.14;100.00
51781;BME280;37844;57.126;24.288;2023-01-27T00:49:58;102086.22;;;1.18;100.00
51781;BME280;37844;57.126;24.288;2023-01-27T00:52:24;102081.59;;;1.13;100.00
51781;BME280;37844;57.126;24.288;2023-01-27T00:54:49;102085.22;;;1.16;100.00
51781;BME280;37844;57.126;24.288;2023-01-27T00:57:15;102083.25;;;1.24;100.00
51781;BME280;37844;57.126;24.288;2023-01-27T00:59:40;102084.69;;;1.32;100.00
51781;BME280;37844;57.126;24.288;2023-01-27T01:02:06;102087.66;;;1.15;100.00
51781;BME280;37844;57.126;24.288;2023-01-27T01:04:31;102088.41;;;1.02;100.00
51781;BME280;37844;57.126;24.288;2023-01-27T01:06:57;102095.63;;;1.08;100.00
51781;BME280;37844;57.126;24.288;2023-01-27T01:09:22;102100.47;;;1.04;100.00
51781;BME280;37844;57.126;24.288;2023-01-27T01:11:48;102103.00;;;1.04;100.00
51781;BME280;37844;57.126;24.288;2023-01-27T01:14:13;102110.38;;;1.01;100.00
51781;BME280;37844;57.126;24.288;2023-01-27T01:16:39;102116.81;;;1.20;100.00
51781;BME280;37844;57.126;24.288;2023-01-27T01:19:04;102113.81;;;1.14;100.00
51781;BME280;37844;57.126;24.288;2023-01-27T01:21:30;102109.19;;;1.20;100.00
51781;BME280;37844;57.126;24.288;2023-01-27T01:23:55;102120.34;;;1.22;100.00
51781;BME280;37844;57.126;24.288;2023-01-27T01:26:21;102113.06;;;1.26;100.00
51781;BME280;37844;57.126;24.288;2023-01-27T01:28:46;102109.84;;;1.17;100.00
51781;BME280;37844;57.126;24.288;2023-01-27T01:31:17;102116.25;;;1.12;100.00
51781;BME280;37844;57.126;24.288;2023-01-27T01:33:43;102106.84;;;1.11;100.00
51781;BME280;37844;57.126;24.288;2023-01-27T01:36:14;102108.19;;;1.18;100.00
51781;BME280;37844;57.126;24.288;2023-01-27T01:38:42;102080.56;;;0.87;100.00
51781;BME280;37844;57.126;24.288;2023-01-27T01:41:12;102119.00;;;1.03;100.00
51781;BME280;37844;57.126;24.288;2023-01-27T01:43:37;102112.50;;;1.07;100.00
51781;BME280;37844;57.126;24.288;2023-01-27T01:46:03;102114.91;;;0.94;100.00
51781;BME280;37844;57.126;24.288;2023-01-27T01:48:38;102115.69;;;0.93;100.00
51781;BME280;37844;57.126;24.288;2023-01-27T01:51:13;102118.00;;;1.01;100.00
51781;BME280;37844;57.126;24.288;2023-01-27T01:59:03;102128.06;;;1.00;100.00
51781;BME280;37844;57.126;24.288;2023-01-27T02:01:30;102130.16;;;1.05;100.00
51781;BME280;37844;57.126;24.288;2023-01-27T02:04:00;102125.97;;;1.06;100.00
51781;BME280;37844;57.126;24.288;2023-01-27T02:06:26;102134.22;;;1.03;100.00
51781;BME280;37844;57.126;24.288;2023-01-27T02:08:53;102138.53;;;0.93;100.00
51781;BME280;37844;57.126;24.288;2023-01-27T02:11:19;102136.75;;;0.92;100.00
51781;BME280;37844;57.126;24.288;2023-01-27T02:13:45;102135.31;;;0.83;100.00
51781;BME280;37844;57.126;24.288;2023-01-27T02:16:11;102141.84;;;1.03;100.00
51781;BME280;37844;57.126;24.288;2023-01-27T02:18:39;102143.72;;;1.06;100.00
51781;BME280;37844;57.126;24.288;2023-01-27T02:21:05;102150.00;;;0.99;100.00
51781;BME280;37844;57.126;24.288;2023-01-27T02:23:45;102149.56;;;0.93;100.00
51781;BME280;37844;57.126;24.288;2023-01-27T02:28:37;102143.38;;;1.01;100.00
51781;BME280;37844;57.126;24.288;2023-01-27T02:31:03;102154.13;;;0.97;100.00
51781;BME280;37844;57.126;24.288;2023-01-27T02:33:29;102161.25;;;0.91;100.00
51781;BME280;37844;57.126;24.288;2023-01-27T02:36:07;102157.19;;;0.93;100.00
51781;BME280;37844;57.126;24.288;2023-01-27T02:38:36;102159.84;;;1.06;100.00
51781;BME280;37844;57.126;24.288;2023-01-27T02:41:13;102150.78;;;0.98;100.00
51781;BME280;37844;57.126;24.288;2023-01-27T02:43:41;102152.34;;;1.08;100.00
51781;BME280;37844;57.126;24.288;2023-01-27T02:46:06;102164.16;;;1.08;100.00
51781;BME280;37844;57.126;24.288;2023-01-27T02:48:32;102156.56;;;1.08;100.00
51781;BME280;37844;57.126;24.288;2023-01-27T02:50:58;102157.66;;;1.11;100.00
51781;BME280;37844;57.126;24.288;2023-01-27T02:53:23;102164.50;;;1.12;100.00
51781;BME280;37844;57.126;24.288;2023-01-27T02:55:49;102168.25;;;1.05;100.00
51781;BME280;37844;57.126;24.288;2023-01-27T02:58:14;102166.38;;;1.15;100.00
51781;BME280;37844;57.126;24.288;2023-01-27T03:00:41;102164.28;;;1.21;100.00
51781;BME280;37844;57.126;24.288;2023-01-27T03:03:07;102174.66;;;1.12;100.00
51781;BME280;37844;57.126;24.288;2023-01-27T03:05:33;102169.59;;;1.12;100.00
51781;BME280;37844;57.126;24.288;2023-01-27T03:07:58;102169.94;;;1.17;100.00
51781;BME280;37844;57.126;24.288;2023-01-27T03:10:24;102164.94;;;1.18;100.00
51781;BME280;37844;57.126;24.288;2023-01-27T03:12:49;102171.34;;;1.13;100.00
51781;BME280;37844;57.126;24.288;2023-01-27T03:15:15;102176.88;;;1.08;100.00
51781;BME280;37844;57.126;24.288;2023-01-27T03:18:09;102165.16;;;0.98;100.00
51781;BME280;37844;57.126;24.288;2023-01-27T03:20:37;102173.44;;;1.07;100.00
51781;BME280;37844;57.126;24.288;2023-01-27T03:23:02;102164.25;;;1.09;100.00
51781;BME280;37844;57.126;24.288;2023-01-27T03:25:28;102168.81;;;1.13;100.00
51781;BME280;37844;57.126;24.288;2023-01-27T03:27:53;102164.81;;;1.05;100.00
51781;BME280;37844;57.126;24.288;2023-01-27T03:30:19;102163.34;;;0.97;100.00
51781;BME280;37844;57.126;24.288;2023-01-27T03:32:45;102178.59;;;0.97;100.00
51781;BME280;37844;57.126;24.288;2023-01-27T03:35:14;102182.03;;;0.97;100.00
51781;BME280;37844;57.126;24.288;2023-01-27T03:37:41;102182.03;;;0.97;100.00
51781;BME280;37844;57.126;24.288;2023-01-27T03:40:25;102177.06;;;0.99;100.00
51781;BME280;37844;57.126;24.288;2023-01-27T03:43:10;102182.13;;;0.99;100.00
51781;BME280;37844;57.126;24.288;2023-01-27T03:45:54;102183.97;;;0.90;100.00
51781;BME280;37844;57.126;24.288;2023-01-27T03:48:38;102183.72;;;0.75;100.00
51781;BME280;37844;57.126;24.288;2023-01-27T03:51:06;102191.31;;;0.75;100.00
51781;BME280;37844;57.126;24.288;2023-01-27T03:53:33;102189.28;;;0.81;100.00
51781;BME280;37844;57.126;24.288;2023-01-27T03:55:58;102184.84;;;0.78;100.00
51781;BME280;37844;57.126;24.288;2023-01-27T03:58:30;102191.16;;;0.83;100.00
51781;BME280;37844;57.126;24.288;2023-01-27T04:03:28;102206.81;;;0.90;100.00
51781;BME280;37844;57.126;24.288;2023-01-27T04:06:14;102205.81;;;0.88;100.00
51781;BME280;37844;57.126;24.288;2023-01-27T04:08:59;102200.34;;;0.93;100.00
51781;BME280;37844;57.126;24.288;2023-01-27T04:11:24;102204.09;;;0.98;100.00
51781;BME280;37844;57.126;24.288;2023-01-27T04:14:10;102215.56;;;0.93;100.00
51781;BME280;37844;57.126;24.288;2023-01-27T04:16:36;102210.31;;;0.80;100.00
51781;BME280;37844;57.126;24.288;2023-01-27T04:19:04;102220.06;;;0.86;100.00
51781;BME280;37844;57.126;24.288;2023-01-27T04:21:30;102218.81;;;1.02;100.00
51781;BME280;37844;57.126;24.288;2023-01-27T04:23:55;102224.63;;;1.01;100.00
51781;BME280;37844;57.126;24.288;2023-01-27T04:26:21;102217.91;;;1.02;100.00
51781;BME280;37844;57.126;24.288;2023-01-27T04:28:48;102227.88;;;1.11;100.00
51781;BME280;37844;57.126;24.288;2023-01-27T04:31:14;102226.91;;;1.20;100.00
51781;BME280;37844;57.126;24.288;2023-01-27T04:33:40;102231.97;;;1.20;100.00
51781;BME280;37844;57.126;24.288;2023-01-27T04:36:06;102227.47;;;0.94;100.00
51781;BME280;37844;57.126;24.288;2023-01-27T04:38:32;102228.97;;;1.02;100.00
51781;BME280;37844;57.126;24.288;2023-01-27T04:40:58;102228.31;;;1.05;100.00
51781;BME280;37844;57.126;24.288;2023-01-27T04:43:23;102218.50;;;1.10;100.00
51781;BME280;37844;57.126;24.288;2023-01-27T04:45:48;102227.75;;;1.09;100.00
51781;BME280;37844;57.126;24.288;2023-01-27T04:48:14;102226.00;;;1.08;100.00
51781;BME280;37844;57.126;24.288;2023-01-27T04:50:39;102225.34;;;1.11;100.00
51781;BME280;37844;57.126;24.288;2023-01-27T04:53:05;102224.66;;;1.13;100.00
51781;BME280;37844;57.126;24.288;2023-01-27T04:55:38;102232.47;;;0.93;100.00
51781;BME280;37844;57.126;24.288;2023-01-27T04:58:16;102230.28;;;1.09;100.00
51781;BME280;37844;57.126;24.288;2023-01-27T05:00:43;102226.34;;;1.13;100.00
51781;BME280;37844;57.126;24.288;2023-01-27T05:03:10;102215.41;;;1.25;100.00
51781;BME280;37844;57.126;24.288;2023-01-27T05:05:36;102221.44;;;1.38;100.00
51781;BME280;37844;57.126;24.288;2023-01-27T05:08:04;102222.63;;;1.31;100.00
51781;BME280;37844;57.126;24.288;2023-01-27T05:10:30;102233.22;;;1.37;100.00
51781;BME280;37844;57.126;24.288;2023-01-27T05:12:56;102228.72;;;1.33;100.00
51781;BME280;37844;57.126;24.288;2023-01-27T05:15:21;102230.69;;;1.37;100.00
51781;BME280;37844;57.126;24.288;2023-01-27T05:17:47;102235.78;;;1.37;100.00
51781;BME280;37844;57.126;24.288;2023-01-27T05:20:12;102236.75;;;1.27;100.00
51781;BME280;37844;57.126;24.288;2023-01-27T05:22:38;102229.94;;;1.38;100.00
51781;BME280;37844;57.126;24.288;2023-01-27T05:25:03;102233.44;;;1.29;100.00
51781;BME280;37844;57.126;24.288;2023-01-27T05:27:29;102231.47;;;1.36;100.00
51781;BME280;37844;57.126;24.288;2023-01-27T05:29:54;102243.84;;;1.32;100.00
51781;BME280;37844;57.126;24.288;2023-01-27T05:32:21;102233.84;;;1.23;100.00
51781;BME280;37844;57.126;24.288;2023-01-27T05:34:46;102241.97;;;1.41;100.00
51781;BME280;37844;57.126;24.288;2023-01-27T05:37:12;102245.63;;;1.44;100.00
51781;BME280;37844;57.126;24.288;2023-01-27T05:39:37;102244.72;;;1.32;100.00
51781;BME280;37844;57.126;24.288;2023-01-27T05:42:03;102245.72;;;1.34;100.00
51781;BME280;37844;57.126;24.288;2023-01-27T05:44:29;102247.56;;;1.25;100.00
51781;BME280;37844;57.126;24.288;2023-01-27T05:46:54;102256.00;;;1.36;100.00
51781;BME280;37844;57.126;24.288;2023-01-27T05:49:20;102260.31;;;1.48;100.00
51781;BME280;37844;57.126;24.288;2023-01-27T05:51:45;102260.19;;;1.47;100.00
51781;BME280;37844;57.126;24.288;2023-01-27T05:54:11;102269.09;;;1.30;100.00
51781;BME280;37844;57.126;24.288;2023-01-27T05:56:36;102263.16;;;1.30;100.00
51781;BME280;37844;57.126;24.288;2023-01-27T05:59:02;102269.66;;;1.26;100.00
51781;BME280;37844;57.126;24.288;2023-01-27T06:01:30;102275.53;;;1.37;100.00
51781;BME280;37844;57.126;24.288;2023-01-27T06:03:56;102284.13;;;1.27;100.00
51781;BME280;37844;57.126;24.288;2023-01-27T06:06:23;102279.88;;;1.16;100.00
51781;BME280;37844;57.126;24.288;2023-01-27T06:08:50;102282.78;;;1.20;100.00
51781;BME280;37844;57.126;24.288;2023-01-27T06:11:17;102288.38;;;1.16;100.00
51781;BME280;37844;57.126;24.288;2023-01-27T06:13:44;102293.25;;;1.13;100.00
51781;BME280;37844;57.126;24.288;2023-01-27T06:16:12;102294.91;;;1.13;100.00
51781;BME280;37844;57.126;24.288;2023-01-27T06:18:39;102302.69;;;1.26;100.00
51781;BME280;37844;57.126;24.288;2023-01-27T06:21:10;102296.34;;;1.21;100.00
51781;BME280;37844;57.126;24.288;2023-01-27T06:23:38;102310.41;;;1.27;100.00
51781;BME280;37844;57.126;24.288;2023-01-27T06:26:14;102313.50;;;1.23;100.00
51781;BME280;37844;57.126;24.288;2023-01-27T06:28:43;102309.88;;;1.32;100.00
51781;BME280;37844;57.126;24.288;2023-01-27T06:31:15;102311.88;;;1.36;100.00
51781;BME280;37844;57.126;24.288;2023-01-27T06:33:41;102303.44;;;1.25;100.00
51781;BME280;37844;57.126;24.288;2023-01-27T06:36:10;102318.81;;;1.26;100.00
51781;BME280;37844;57.126;24.288;2023-01-27T06:38:35;102317.88;;;1.14;100.00
51781;BME280;37844;57.126;24.288;2023-01-27T06:41:01;102323.19;;;1.17;100.00
51781;BME280;37844;57.126;24.288;2023-01-27T06:43:27;102320.78;;;1.19;100.00
51781;BME280;37844;57.126;24.288;2023-01-27T06:45:53;102336.94;;;1.09;100.00
51781;BME280;37844;57.126;24.288;2023-01-27T06:48:19;102342.66;;;1.06;100.00
51781;BME280;37844;57.126;24.288;2023-01-27T06:50:44;102343.81;;;1.10;100.00
51781;BME280;37844;57.126;24.288;2023-01-27T06:53:10;102346.34;;;1.10;100.00
51781;BME280;37844;57.126;24.288;2023-01-27T06:55:37;102337.66;;;1.18;100.00
51781;BME280;37844;57.126;24.288;2023-01-27T06:58:07;102352.16;;;1.09;100.00
51781;BME280;37844;57.126;24.288;2023-01-27T07:00:36;102337.28;;;1.14;100.00
51781;BME280;37844;57.126;24.288;2023-01-27T07:03:03;102358.09;;;1.20;100.00
51781;BME280;37844;57.126;24.288;2023-01-27T07:05:29;102353.78;;;1.19;100.00
51781;BME280;37844;57.126;24.288;2023-01-27T07:07:54;102364.41;;;1.25;100.00
51781;BME280;37844;57.126;24.288;2023-01-27T07:10:20;102354.72;;;1.09;100.00
51781;BME280;37844;57.126;24.288;2023-01-27T07:12:46;102359.78;;;1.09;100.00
51781;BME280;37844;57.126;24.288;2023-01-27T07:15:12;102364.03;;;1.20;100.00
51781;BME280;37844;57.126;24.288;2023-01-27T07:17:38;102357.63;;;1.36;100.00
51781;BME280;37844;57.126;24.288;2023-01-27T07:20:05;102363.50;;;1.46;100.00
51781;BME280;37844;57.126;24.288;2023-01-27T07:22:32;102368.19;;;1.52;100.00
51781;BME280;37844;57.126;24.288;2023-01-27T07:24:57;102370.38;;;1.47;100.00
51781;BME280;37844;57.126;24.288;2023-01-27T07:27:23;102376.56;;;1.51;100.00
51781;BME280;37844;57.126;24.288;2023-01-27T07:29:49;102386.75;;;1.63;100.00
51781;BME280;37844;57.126;24.288;2023-01-27T07:32:15;102374.34;;;1.56;100.00
51781;BME280;37844;57.126;24.288;2023-01-27T07:34:46;102395.53;;;1.44;100.00
51781;BME280;37844;57.126;24.288;2023-01-27T07:37:12;102407.81;;;1.50;100.00
51781;BME280;37844;57.126;24.288;2023-01-27T07:39:38;102403.00;;;1.31;100.00
51781;BME280;37844;57.126;24.288;2023-01-27T07:42:04;102405.59;;;1.43;100.00
51781;BME280;37844;57.126;24.288;2023-01-27T07:44:30;102409.28;;;1.58;100.00
51781;BME280;37844;57.126;24.288;2023-01-27T07:46:57;102416.34;;;1.51;100.00
51781;BME280;37844;57.126;24.288;2023-01-27T07:49:23;102408.41;;;1.58;100.00
51781;BME280;37844;57.126;24.288;2023-01-27T07:51:48;102418.66;;;1.47;100.00
51781;BME280;37844;57.126;24.288;2023-01-27T07:54:14;102420.16;;;1.67;100.00
51781;BME280;37844;57.126;24.288;2023-01-27T07:56:39;102415.59;;;1.63;100.00
51781;BME280;37844;57.126;24.288;2023-01-27T07:59:05;102427.47;;;1.75;100.00
51781;BME280;37844;57.126;24.288;2023-01-27T08:01:30;102416.47;;;1.52;100.00
51781;BME280;37844;57.126;24.288;2023-01-27T08:03:57;102442.69;;;1.41;100.00
51781;BME280;37844;57.126;24.288;2023-01-27T08:06:22;102425.13;;;1.22;100.00
51781;BME280;37844;57.126;24.288;2023-01-27T08:08:48;102435.72;;;1.38;100.00
51781;BME280;37844;57.126;24.288;2023-01-27T08:11:14;102432.22;;;1.26;100.00
51781;BME280;37844;57.126;24.288;2023-01-27T08:13:40;102449.38;;;1.29;100.00
51781;BME280;37844;57.126;24.288;2023-01-27T08:16:09;102449.25;;;1.49;100.00
51781;BME280;37844;57.126;24.288;2023-01-27T08:18:35;102452.72;;;1.61;100.00
51781;BME280;37844;57.126;24.288;2023-01-27T08:21:03;102450.66;;;1.67;100.00
51781;BME280;37844;57.126;24.288;2023-01-27T08:23:30;102447.75;;;1.63;100.00
51781;BME280;37844;57.126;24.288;2023-01-27T08:25:58;102458.84;;;1.75;100.00
51781;BME280;37844;57.126;24.288;2023-01-27T08:28:25;102452.38;;;1.79;100.00
51781;BME280;37844;57.126;24.288;2023-01-27T08:30:51;102449.03;;;1.80;100.00
51781;BME280;37844;57.126;24.288;2023-01-27T08:33:22;102455.22;;;1.72;100.00
51781;BME280;37844;57.126;24.288;2023-01-27T08:35:49;102446.13;;;1.97;100.00
51781;BME280;37844;57.126;24.288;2023-01-27T08:38:17;102447.16;;;2.23;100.00
51781;BME280;37844;57.126;24.288;2023-01-27T08:40:44;102457.91;;;2.19;100.00
51781;BME280;37844;57.126;24.288;2023-01-27T08:43:10;102460.72;;;2.45;100.00
51781;BME280;37844;57.126;24.288;2023-01-27T08:45:36;102462.41;;;2.68;100.00
51781;BME280;37844;57.126;24.288;2023-01-27T08:48:02;102458.84;;;2.78;100.00
51781;BME280;37844;57.126;24.288;2023-01-27T08:50:29;102458.16;;;2.45;100.00
51781;BME280;37844;57.126;24.288;2023-01-27T08:52:55;102462.72;;;2.61;100.00
51781;BME280;37844;57.126;24.288;2023-01-27T08:55:30;102457.84;;;2.52;100.00
51781;BME280;37844;57.126;24.288;2023-01-27T08:57:56;102459.38;;;2.39;100.00
51781;BME280;37844;57.126;24.288;2023-01-27T09:00:22;102455.44;;;1.75;100.00
51781;BME280;37844;57.126;24.288;2023-01-27T09:03:00;102463.88;;;1.63;100.00
51781;BME280;37844;57.126;24.288;2023-01-27T09:05:26;102458.81;;;1.63;100.00
51781;BME280;37844;57.126;24.288;2023-01-27T09:07:51;102456.41;;;1.99;100.00
51781;BME280;37844;57.126;24.288;2023-01-27T09:10:17;102465.03;;;2.58;100.00
51781;BME280;37844;57.126;24.288;2023-01-27T09:12:43;102468.09;;;3.13;100.00
51781;BME280;37844;57.126;24.288;2023-01-27T09:15:10;102459.81;;;3.04;100.00
51781;BME280;37844;57.126;24.288;2023-01-27T09:17:36;102421.34;;;2.64;100.00
51781;BME280;37844;57.126;24.288;2023-01-27T09:20:02;102449.41;;;2.53;100.00
51781;BME280;37844;57.126;24.288;2023-01-27T09:22:27;102458.59;;;2.87;100.00
51781;BME280;37844;57.126;24.288;2023-01-27T09:24:54;102462.47;;;3.17;100.00
51781;BME280;37844;57.126;24.288;2023-01-27T09:27:19;102467.38;;;3.02;100.00
51781;BME280;37844;57.126;24.288;2023-01-27T09:29:45;102464.16;;;2.81;100.00
51781;BME280;37844;57.126;24.288;2023-01-27T09:32:10;102452.31;;;2.82;100.00
51781;BME280;37844;57.126;24.288;2023-01-27T09:34:37;102452.22;;;2.92;100.00
51781;BME280;37844;57.126;24.288;2023-01-27T09:37:07;102463.28;;;2.81;100.00
51781;BME280;37844;57.126;24.288;2023-01-27T09:39:37;102464.81;;;2.55;100.00
51781;BME280;37844;57.126;24.288;2023-01-27T09:42:30;102473.47;;;2.11;100.00
51781;BME280;37844;57.126;24.288;2023-01-27T09:51:42;102479.44;;;2.12;100.00
51781;BME280;37844;57.126;24.288;2023-01-27T09:53:59;102482.16;;;2.37;100.00
51781;BME280;37844;57.126;24.288;2023-01-27T09:56:30;102481.63;;;2.41;100.00
51781;BME280;37844;57.126;24.288;2023-01-27T10:10:19;102507.41;;;1.78;100.00
51781;BME280;37844;57.126;24.288;2023-01-27T10:12:58;102496.03;;;2.07;100.00
51781;BME280;37844;57.126;24.288;2023-01-27T10:26:41;102499.81;;;2.69;100.00
51781;BME280;37844;57.126;24.288;2023-01-27T10:29:48;102508.66;;;2.74;100.00
51781;BME280;37844;57.126;24.288;2023-01-27T10:35:06;102513.88;;;2.64;100.00
51781;BME280;37844;57.126;24.288;2023-01-27T10:42:37;102523.31;;;1.98;100.00
51781;BME280;37844;57.126;24.288;2023-01-27T10:45:18;102532.97;;;2.13;100.00
51781;BME280;37844;57.126;24.288;2023-01-27T10:50:49;102513.13;;;2.31;100.00
51781;BME280;37844;57.126;24.288;2023-01-27T10:53:42;102517.50;;;2.68;100.00
51781;BME280;37844;57.126;24.288;2023-01-27T10:56:18;102517.97;;;2.74;100.00
51781;BME280;37844;57.126;24.288;2023-01-27T11:01:38;102508.63;;;3.33;100.00
51781;BME280;37844;57.126;24.288;2023-01-27T11:04:16;102515.16;;;3.42;100.00
51781;BME280;37844;57.126;24.288;2023-01-27T11:06:44;102500.91;;;3.69;100.00
51781;BME280;37844;57.126;24.288;2023-01-27T11:11:40;102505.38;;;4.35;100.00
51781;BME280;37844;57.126;24.288;2023-01-27T11:16:45;102508.25;;;4.14;100.00
51781;BME280;37844;57.126;24.288;2023-01-27T11:22:02;102511.69;;;3.90;100.00
51781;BME280;37844;57.126;24.288;2023-01-27T11:24:41;102516.50;;;3.85;100.00
51781;BME280;37844;57.126;24.288;2023-01-27T11:27:18;102518.00;;;3.95;100.00
51781;BME280;37844;57.126;24.288;2023-01-27T11:30:02;102528.31;;;3.59;100.00
51781;BME280;37844;57.126;24.288;2023-01-27T11:32:43;102523.09;;;3.58;100.00
51781;BME280;37844;57.126;24.288;2023-01-27T11:35:14;102527.28;;;3.32;100.00
51781;BME280;37844;57.126;24.288;2023-01-27T11:37:45;102523.41;;;3.26;100.00
51781;BME280;37844;57.126;24.288;2023-01-27T11:40:18;102516.16;;;3.32;100.00
51781;BME280;37844;57.126;24.288;2023-01-27T11:42:45;102521.47;;;3.58;100.00
51781;BME280;37844;57.126;24.288;2023-01-27T11:45:17;102519.22;;;3.63;100.00
51781;BME280;37844;57.126;24.288;2023-01-27T11:47:45;102516.44;;;3.60;100.00
51781;BME280;37844;57.126;24.288;2023-01-27T11:50:17;102518.34;;;3.51;100.00
51781;BME280;37844;57.126;24.288;2023-01-27T11:52:47;102498.47;;;3.22;100.00
51781;BME280;37844;57.126;24.288;2023-01-27T11:55:18;102507.31;;;3.27;100.00
51781;BME280;37844;57.126;24.288;2023-01-27T11:57:51;102505.78;;;3.05;100.00
51781;BME280;37844;57.126;24.288;2023-01-27T12:00:27;102505.78;;;3.17;100.00
51781;BME280;37844;57.126;24.288;2023-01-27T12:03:17;102502.34;;;3.05;100.00
51781;BME280;37844;57.126;24.288;2023-01-27T12:05:48;102494.50;;;3.02;100.00
51781;BME280;37844;57.126;24.288;2023-01-27T12:08:40;102492.81;;;3.14;100.00
51781;BME280;37844;57.126;24.288;2023-01-27T12:11:34;102447.88;;;3.03;100.00
51781;BME280;37844;57.126;24.288;2023-01-27T12:14:03;102486.66;;;3.47;100.00
51781;BME280;37844;57.126;24.288;2023-01-27T12:16:49;102491.47;;;3.31;100.00
51781;BME280;37844;57.126;24.288;2023-01-27T12:19:20;102488.47;;;3.36;100.00
51781;BME280;37844;57.126;24.288;2023-01-27T12:21:54;102492.00;;;3.38;100.00
51781;BME280;37844;57.126;24.288;2023-01-27T12:24:30;102488.09;;;3.44;100.00
51781;BME280;37844;57.126;24.288;2023-01-27T12:26:57;102482.81;;;3.29;100.00
51781;BME280;37844;57.126;24.288;2023-01-27T12:29:41;102498.22;;;3.42;100.00
51781;BME280;37844;57.126;24.288;2023-01-27T12:32:17;102497.19;;;3.52;100.00
51781;BME280;37844;57.126;24.288;2023-01-27T12:34:48;102492.75;;;3.61;100.00
51781;BME280;37844;57.126;24.288;2023-01-27T12:37:22;102490.88;;;3.47;100.00
51781;BME280;37844;57.126;24.288;2023-01-27T12:39:50;102487.31;;;3.56;100.00
51781;BME280;37844;57.126;24.288;2023-01-27T12:47:55;102488.75;;;3.53;100.00
51781;BME280;37844;57.126;24.288;2023-01-27T12:50:27;102492.19;;;3.53;100.00
51781;BME280;37844;57.126;24.288;2023-01-27T12:53:02;102499.75;;;3.40;100.00
51781;BME280;37844;57.126;24.288;2023-01-27T12:55:31;102492.78;;;3.37;100.00
51781;BME280;37844;57.126;24.288;2023-01-27T12:57:57;102493.66;;;3.38;100.00
51781;BME280;37844;57.126;24.288;2023-01-27T13:00:24;102500.19;;;3.46;100.00
51781;BME280;37844;57.126;24.288;2023-01-27T13:02:51;102506.28;;;3.48;100.00
51781;BME280;37844;57.126;24.288;2023-01-27T13:05:18;102517.50;;;3.38;100.00
51781;BME280;37844;57.126;24.288;2023-01-27T13:07:50;102510.00;;;3.16;100.00
51781;BME280;37844;57.126;24.288;2023-01-27T13:10:22;102509.22;;;3.06;100.00
51781;BME280;37844;57.126;24.288;2023-01-27T13:12:49;102517.66;;;3.05;100.00
51781;BME280;37844;57.126;24.288;2023-01-27T13:15:17;102518.53;;;2.93;100.00
51781;BME280;37844;57.126;24.288;2023-01-27T13:17:48;102512.75;;;2.84;100.00
51781;BME280;37844;57.126;24.288;2023-01-27T13:20:30;102517.16;;;2.63;100.00
51781;BME280;37844;57.126;24.288;2023-01-27T13:25:34;102522.69;;;2.58;100.00
51781;BME280;37844;57.126;24.288;2023-01-27T13:28:02;102521.31;;;2.73;100.00
51781;BME280;37844;57.126;24.288;2023-01-27T13:30:37;102519.31;;;2.81;100.00
51781;BME280;37844;57.126;24.288;2023-01-27T13:36:11;102515.06;;;2.58;100.00
51781;BME280;37844;57.126;24.288;2023-01-27T13:41:15;102543.09;;;2.69;100.00
51781;BME280;37844;57.126;24.288;2023-01-27T13:43:52;102538.00;;;2.69;100.00
51781;BME280;37844;57.126;24.288;2023-01-27T13:46:26;102539.47;;;2.44;100.00
51781;BME280;37844;57.126;24.288;2023-01-27T13:48:54;102528.66;;;2.46;100.00
51781;BME280;37844;57.126;24.288;2023-01-27T13:51:24;102536.97;;;2.55;100.00
51781;BME280;37844;57.126;24.288;2023-01-27T13:54:02;102542.50;;;2.50;100.00
51781;BME280;37844;57.126;24.288;2023-01-27T13:59:18;102552.00;;;2.41;100.00
51781;BME280;37844;57.126;24.288;2023-01-27T14:01:54;102551.78;;;2.38;100.00
51781;BME280;37844;57.126;24.288;2023-01-27T14:07:22;102553.63;;;2.28;100.00
51781;BME280;37844;57.126;24.288;2023-01-27T14:16:18;102545.41;;;1.99;100.00